Lakeside Marblehead, Ohio
Current Conditions -  °F | °C
As of 5:13 AM on Saturday 22 Nov 2014 (Local Time) from KPCW Reporting Station
Overcast Overcast  
Wind Chill: 20°   Ceiling: 4000
Heat Index: 30°   Visibility: 10mi
Dew Point: 18°   Wind: 14mph
Humidity: 60%   Direction: 190°S
Pressure: 30.22"   Gusts: NA
Location:  41.53°N, 82.76°W
Report Text: KPCW 221013Z AUTO 19012KT 10SM OVC040 M01/M08 A3022 RMK AO2 $
Loading
Personal Weather Stations






























Interactive Weather Map New forecast layout! Learn more

10-Day Weather Forecast

Advertisements
Track Severe Weather on mobile